AirNav   Pilot Hours Calculator
 
 390 users online  

O03 Morgantown Airport
Morgantown, Pennsylvania, USA

GOING TO MORGANTOWN?


FAA INFORMATION EFFECTIVE 25 FEBRUARY 2021

Location

FAA Identifier: O03
Lat/Long: 40-09-25.3490N 075-52-13.7610W
40-09.422483N 075-52.229350W
40.1570414,-75.8704892
(estimated)
Elevation: 600 ft. / 183 m (estimated)
Variation: 11W (1985)
From city: 1 mile E of MORGANTOWN, PA
Time zone: UTC -5 (UTC -4 during Daylight Saving Time)
Zip code: 19520

Airport Operations

Airport use: Open to the public
Activation date: 03/1973
Control tower: no
ARTCC: NEW YORK CENTER
FSS: WILLIAMSPORT FLIGHT SERVICE STATION
NOTAMs facility: IPT (NOTAM-D service available)
Attendance: IREG
Wind indicator: lighted
Segmented circle: no
Lights: ACTVT LIRL RWY 10/28; WDI LGTS - CTAF.
Beacon: BCN INOP INDEF.

Airport Communications

CTAF: 122.9
WX AWOS-3 at MQS (11 nm S): 126.25 (610-384-6132)
WX ASOS at RDG (14 nm N): 127.1 (610-372-9863)
WX ASOS at PTW (15 nm E): 119.425 (610-495-0823)
WX AWOS-3T at OQN (17 nm SE): 121.4 ((610) 692-6190)
WX ASOS at LNS (20 nm W): 125.675 (717-569-8860)

Nearby radio navigation aids

VOR radial/distance  VOR name  Freq  Var
PTWr264/14.7POTTSTOWN VORTAC116.5009W
MXEr336/17.0MODENA VORTAC113.2009W
LRPr092/19.4LANCASTER VOR/DME117.3009W
ETXr208/26.8EAST TEXAS VOR/DME110.2009W
DQOr347/31.2DUPONT VORTAC114.0010W
FJCr219/39.1ALLENTOWN VORTAC117.5010W

 
NDB name  Hdg/Dist  Freq  Var  ID
AMBLER286/26.927512WING .. -. --.
BELLGROVE128/35.432810WBZJ -... --.. .---

Airport Services

Fuel available: 100LL
Parking: tiedowns
Airframe service: NONE
Powerplant service: NONE

Runway Information

Runway 10/28

Dimensions: 2500 x 100 ft. / 762 x 30 m
Surface: turf, in good condition
Runway edge lights: low intensity
Operational restrictions: MKD WITH YELLOW TIRES & LGTS.
RUNWAY 10  RUNWAY 28
Traffic pattern: leftleft
Displaced threshold: 435 ft.
DTHR MKD BY LGTS WITH YELLOW COLLARS; 3 EACH SIDE.
no
Obstructions: 15 ft. road, 53 ft. from runway, 3:1 slope to clear
APCH RATIO 17:1 TO DTHR.
none

Airport Ownership and Management from official FAA records

Ownership: Privately-owned
Owner: VERNON BEILER
2019 VALLEY ROAD
MORGANTOWN, PA 19543
Phone 610-286-9055
Manager: VERNON BEILER
2019 VALLEY ROAD
MORGANTOWN, PA 19543
Phone 610-286-9055

Airport Operational Statistics

Aircraft based on the field: 27
Single engine airplanes: 20
Gliders airplanes: 7
    
Aircraft operations: avg 28/day *
98% local general aviation
2% transient general aviation
* for 12-month period ending 29 July 2020

Additional Remarks

GLIDER ACT ON ARPT.
FOR FUEL CTC 610-286-9055.
FOR CD CTC RDG ATCT 610-478-9562; WHEN CLSD CTC MDT APCH 800-932-0712.
RWY 10 CLSD SS-SR.

Instrument Procedures

There are no published instrument procedures at O03.

Some nearby airports with instrument procedures:

KMQS - Chester County G O Carlson Airport (11 nm S)
N47 - Pottstown Municipal Airport (11 nm NE)
KRDG - Reading Regional Airport/Carl A Spaatz Field (14 nm N)
KPTW - Heritage Field Airport (15 nm E)
KOQN - Brandywine Regional Airport (17 nm SE)
KLNS - Lancaster Airport (20 nm W)
 
Loc | Ops | Rwys | IFR | FBO | Links
Com | Nav | Svcs | Stats | Notes
Area around O03 (Morgantown Airport)
 
Road maps at: MapQuest Bing Google
 
Aerial photo
WARNING: Photo may not be current or correct
Aerial photo of O03 (Morgantown Airport)
Photo by Alan White
Photo taken 18-Oct-2020
looking west.

Do you have a better or more recent aerial photo of Morgantown Airport that you would like to share? If so, please send us your photo.

 
Sectional chart

 
Airport distance calculator
Flying to Morgantown Airport? Find the distance to fly.

From to O03

Sunrise and sunset
Times for 06-Mar-2021
 Local
(UTC-5)
 Zulu
(UTC)
Morning civil twilight06:0311:03
Sunrise06:3011:30
Sunset17:5922:59
Evening civil twilight18:2623:26

Current date and time
Zulu (UTC)  06-Mar-2021 07:02:55
Local (UTC-5)  06-Mar-2021 02:02:55
 
METAR
KMQS 
11nm S 
060635Z AUTO 26006KT 10SM OVC050 M01/M09 A3002 RMK AO2
KRDG 
13nm N 
060654Z 27007KT 10SM OVC060 01/M08 A3000 RMK AO2 SLP166 T00061083 $
KPTW 
15nm E 
060654Z AUTO 28005KT 10SM OVC060 M01/M09 A3002 RMK AO2 SLP166 T10061094
KOQN 
17nm SE 
060635Z AUTO 27007G14KT 10SM BKN055 00/M09 A3002 RMK AO2
KLNS 
20nm W 
060653Z AUTO 28011KT 10SM OVC060 01/M09 A3002 RMK AO2 SLP170 T00061094
TAF
KRDG 
13nm N 
051720Z 0518/0618 30018G28KT P6SM SKC FM052300 29013G21KT P6SM SKC FM060200 29009KT P6SM FEW130 FM061400 30012G18KT P6SM BKN050
KLNS 
20nm W 
060540Z 0606/0706 30010G20KT P6SM BKN050 FM061600 31015G26KT P6SM BKN060 FM070300 32008G15KT P6SM SCT050
NOTAMs
Click for the latest NOTAMs
NOTAMs are issued by the DoD/FAA and will open in a separate window not controlled by AirNav.

 

 
 

Would you like to see your business listed on this page?

 If your business provides an interesting product or service to pilots, flight crews, aircraft, or users of the Morgantown Airport, you should consider listing it here.  To start the listing process, click on the button below
 
Add a business
 

Other Pages about Morgantown Airport

Update a link
 
Copyright © AirNav, LLC. All rights reserved. Privacy Policy  Contact